Home   Weather   France   Bordeaux   Past weeks
Flag for France

Past Weather in Bordeaux, Nouvelle-Aquitaine, France — Yesterday and Last 2 Weeks

Currently: 64 °F. Clear. (Weather station: Bordeaux / Merignac, France). See more current weather

Past Weather in Bordeaux — Graph

°F

Bordeaux Temperature Yesterday

Maximum temperature yesterday: 79 °F (at 2:00 pm)
Minimum temperature yesterday: 66 °F (at 11:00 pm)
Average temperature yesterday: 72 °F

High & Low Weather Summary for the Past Weeks

 TemperatureHumidityPressure
High93 °F (Jul 20, 5:30 pm)100% (Jul 9, 5:30 am)30.30 "Hg (Jul 9, 5:30 am)
Low54 °F (Jul 9, 5:30 am)33% (Jul 19, 5:30 pm)29.83 "Hg (Jul 23, 10:30 am)
Average71 °F73%30.06 "Hg
* Reported Jul 9 3:00 am — Jul 24 3:30 am, Bordeaux. Weather by CustomWeather, © 2021

Note: Actual official high and low records may vary slightly from our data, if they occured in-between our weather recording intervals... More about our weather records

Bordeaux Weather History for the Previous 24 Hours

Scroll right to see more
 ConditionsComfort  
Time TempWeatherWind HumidityBarometerVisibility
3:30 am
Sat, Jul 24
64 °FClear.6 mph88%29.89 "Hg10 mi
3:00 am64 °FClear.8 mph88%29.89 "Hg10 mi
2:30 am64 °FClear.8 mph88%29.92 "Hg10 mi
2:00 am64 °FClear.8 mph88%29.92 "Hg10 mi
1:30 am66 °FClear.12 mph83%29.92 "Hg10 mi
1:00 am64 °FClear.9 mph88%29.92 "Hg10 mi
12:30 am64 °FClear.3 mph88%29.92 "Hg10 mi
12:00 am66 °FPassing clouds.6 mph88%29.92 "HgN/A
11:30 pm
Fri, Jul 23
66 °FClear.7 mph88%29.92 "Hg10 mi
11:00 pm66 °FClear.7 mph88%29.92 "Hg10 mi
10:30 pm68 °FClear.6 mph83%29.92 "Hg10 mi
10:00 pm68 °FMostly cloudy.5 mph83%29.89 "HgN/A
9:30 pm70 °FPartly sunny.7 mph78%29.89 "HgN/A
9:00 pm72 °FMostly cloudy.9 mph69%29.89 "HgN/A
8:30 pm72 °FBroken clouds.10 mph69%29.89 "HgN/A
8:00 pm72 °FBroken clouds.9 mph69%29.89 "HgN/A
7:30 pm72 °FPartly sunny.10 mph69%29.86 "HgN/A
7:00 pm72 °FMostly cloudy.10 mph69%29.89 "HgN/A
6:30 pm73 °FPartly sunny.13 mph65%29.86 "HgN/A
6:00 pm75 °FPartly sunny.16 mph61%29.86 "HgN/A
5:30 pm75 °FPartly sunny.14 mph61%29.86 "HgN/A
5:00 pm73 °FBroken clouds.14 mph74%29.86 "HgN/A
4:30 pm73 °FBroken clouds.15 mph78%29.86 "HgN/A
4:00 pm75 °FMostly cloudy.16 mph74%29.86 "HgN/A
3:30 pm77 °FBroken clouds.13 mph69%29.83 "HgN/A
3:00 pm77 °FPartly sunny.13 mph69%29.83 "HgN/A
2:30 pm77 °FPartly sunny.12 mph74%29.83 "HgN/A
2:00 pm79 °FPartly sunny.9 mph70%29.83 "HgN/A
1:30 pm77 °FPartly sunny.8 mph74%29.83 "HgN/A
1:00 pm77 °FPartly sunny.6 mph79%29.83 "HgN/A
12:30 pm75 °FMore clouds than sun.6 mph78%29.83 "HgN/A
12:00 pm73 °FMostly cloudy.6 mph83%29.83 "HgN/A
11:30 am73 °FMostly cloudy.6 mph83%29.83 "HgN/A
11:00 am72 °FLow clouds.3 mph88%29.83 "HgN/A
10:30 am72 °FLow clouds.6 mph88%29.83 "HgN/A
10:00 am72 °FLow clouds.5 mph88%29.86 "HgN/A
9:30 am72 °FLow clouds.7 mph88%29.86 "HgN/A
9:00 am70 °FLow clouds.6 mph94%29.86 "HgN/A
7:30 am70 °FMostly cloudy.5 mph94%29.86 "HgN/A
7:00 am72 °FLow clouds.5 mph88%29.86 "HgN/A
6:30 am72 °FLow clouds.5 mph88%29.86 "HgN/A
6:00 am70 °FLow clouds.7 mph94%29.86 "HgN/A
5:30 am72 °FLow clouds.6 mph88%29.86 "Hg6 mi
5:00 am72 °FLow clouds.6 mph88%29.89 "Hg6 mi
4:30 am72 °FLow clouds.6 mph88%29.89 "Hg6 mi
4:00 am72 °FLow clouds.7 mph88%29.89 "HgN/A
Weather by CustomWeather, © 2021

See weather overview